Terminal Aerodrome Forecast
Issued by NWS

Home | Current Version | Previous Version | Text Only | Print | Product List | Glossary On
Versions: 1 2 3 4 5 6 7 8 9 10 11 12 13 14
000
FTUS46 KSTO 161100
TAFSAC
TAF
KSAC 161131Z 1612/1712 VRB06KT P6SM FEW200
     FM161800 34010G16KT P6SM SCT200
     FM162200 33011KT P6SM SKC
     FM170000 VRB05KT P6SM SKC=

USA.gov is the U.S. government's official web portal to all federal, state and local government web resources and services.